Time;durP1;ratioP1;P1;durP2;ratioP2;P2;SDS_P1;SDS_P2;PMS_P1;PMS_P2;Temp;Humidity;BMP_temperature;BMP_pressure;BME280_temperature;BME280_humidity;BME280_pressure;Samples;Min_cycle;Max_cycle;Signal;HPM_P1;HPM_P2
2022/07/04 00:00:10;;;;;;;48.20;27.13;;;;;;;;;;4989333;28;20082;-60
2022/07/04 00:02:37;;;;;;;39.47;25.70;;;;;;;;;;4987253;28;20062;-60
2022/07/04 00:05:04;;;;;;;39.07;24.87;;;;;;;;;;4992238;28;20120;-61
2022/07/04 00:07:30;;;;;;;36.57;23.73;;;;;;;;;;4991012;28;20070;-61
2022/07/04 00:09:56;;;;;;;41.70;24.97;;;;;;;;;;4987916;28;20441;-61
2022/07/04 00:12:21;;;;;;;45.03;26.03;;;;;;;;;;4986563;28;20157;-60
2022/07/04 00:14:48;;;;;;;42.57;27.10;;;;;;;;;;4996804;28;20049;-60
2022/07/04 00:17:14;;;;;;;44.77;27.67;;;;;;;;;;4989672;28;20038;-61
2022/07/04 00:19:40;;;;;;;56.13;30.33;;;;;;;;;;4989479;28;20050;-61
2022/07/04 00:22:06;;;;;;;45.30;29.40;;;;;;;;;;4988847;28;20456;-61
2022/07/04 00:24:32;;;;;;;49.30;31.73;;;;;;;;;;4989716;28;20065;-61
2022/07/04 00:26:58;;;;;;;47.73;29.70;;;;;;;;;;4989280;28;20459;-61
2022/07/04 00:29:24;;;;;;;44.90;29.10;;;;;;;;;;4989708;28;20053;-61
2022/07/04 00:31:50;;;;;;;48.83;29.77;;;;;;;;;;4989550;28;20418;-61
2022/07/04 00:34:16;;;;;;;52.47;31.30;;;;;;;;;;4989918;28;20043;-61
2022/07/04 00:36:42;;;;;;;74.57;38.97;;;;;;;;;;4987681;28;20913;-61
2022/07/04 00:39:08;;;;;;;93.20;45.00;;;;;;;;;;4989998;28;20038;-61
2022/07/04 00:41:34;;;;;;;70.77;37.87;;;;;;;;;;4988985;28;20105;-61
2022/07/04 00:44:04;;;;;;;60.13;35.30;;;;;;;;;;4989513;28;20065;-61
2022/07/04 00:46:30;;;;;;;72.57;39.63;;;;;;;;;;4989221;28;20054;-61
2022/07/04 00:48:56;;;;;;;65.27;38.33;;;;;;;;;;4989241;28;20045;-61
2022/07/04 00:51:23;;;;;;;60.67;37.80;;;;;;;;;;4988617;28;20116;-61
2022/07/04 00:53:49;;;;;;;63.87;36.47;;;;;;;;;;4989343;28;20049;-61
2022/07/04 00:56:16;;;;;;;63.67;35.23;;;;;;;;;;4989345;28;20053;-61
2022/07/04 00:58:42;;;;;;;50.07;28.77;;;;;;;;;;4988318;28;20043;-61
2022/07/04 01:01:08;;;;;;;47.17;27.97;;;;;;;;;;4988764;28;20412;-61
2022/07/04 01:03:34;;;;;;;44.03;28.63;;;;;;;;;;4988428;28;20034;-61
2022/07/04 01:06:00;;;;;;;40.63;26.93;;;;;;;;;;4989007;28;20046;-61
2022/07/04 01:08:26;;;;;;;46.63;28.90;;;;;;;;;;4989024;28;20042;-61
2022/07/04 01:10:52;;;;;;;59.40;31.53;;;;;;;;;;4989075;28;20042;-61
2022/07/04 01:13:22;;;;;;;50.63;29.30;;;;;;;;;;4988353;28;20485;-61
2022/07/04 01:15:48;;;;;;;38.73;26.23;;;;;;;;;;4980519;28;20406;-63
2022/07/04 01:18:14;;;;;;;40.60;28.27;;;;;;;;;;4976036;28;20201;-63
2022/07/04 01:20:40;;;;;;;43.23;26.97;;;;;;;;;;4989057;28;20527;-61
2022/07/04 01:23:06;;;;;;;43.03;27.80;;;;;;;;;;4988873;28;20054;-61
2022/07/04 01:25:33;;;;;;;44.70;28.23;;;;;;;;;;4988441;28;20058;-61
2022/07/04 01:28:02;;;;;;;49.60;29.37;;;;;;;;;;4988701;28;20085;-61
2022/07/04 01:30:28;;;;;;;41.57;26.57;;;;;;;;;;4988362;28;20421;-61
2022/07/04 01:32:54;;;;;;;37.57;27.00;;;;;;;;;;4988820;28;20088;-61
2022/07/04 01:35:21;;;;;;;38.07;25.50;;;;;;;;;;4987911;28;20058;-61
2022/07/04 01:37:47;;;;;;;32.63;22.37;;;;;;;;;;4989371;28;20046;-61
2022/07/04 01:40:13;;;;;;;32.27;22.43;;;;;;;;;;4991841;28;20440;-61
2022/07/04 01:42:40;;;;;;;45.73;26.67;;;;;;;;;;4993118;28;20501;-61
2022/07/04 01:45:07;;;;;;;37.60;25.43;;;;;;;;;;4992647;28;20039;-61
2022/07/04 01:47:33;;;;;;;47.20;27.83;;;;;;;;;;4992763;28;20047;-61
2022/07/04 01:49:59;;;;;;;42.67;27.30;;;;;;;;;;4991262;28;20039;-62
2022/07/04 01:52:25;;;;;;;37.80;25.47;;;;;;;;;;4992439;28;20514;-61
2022/07/04 01:54:52;;;;;;;39.37;27.60;;;;;;;;;;4992628;28;20199;-61
2022/07/04 01:57:18;;;;;;;48.97;28.87;;;;;;;;;;4992975;28;20050;-61
2022/07/04 02:02:29;;;;;;;39.97;26.70;;;;;;;;;;4992347;28;20042;-61
2022/07/04 02:04:55;;;;;;;49.03;30.43;;;;;;;;;;4992421;28;20055;-61
2022/07/04 02:07:21;;;;;;;52.43;30.83;;;;;;;;;;4993066;28;20043;-62
2022/07/04 02:09:47;;;;;;;53.17;31.47;;;;;;;;;;4992983;28;20050;-61
2022/07/04 02:14:57;;;;;;;49.23;29.27;;;;;;;;;;4992477;28;20078;-61
2022/07/04 02:17:23;;;;;;;49.77;30.10;;;;;;;;;;4991966;28;20054;-61
2022/07/04 02:19:49;;;;;;;47.60;30.40;;;;;;;;;;4992287;28;20142;-62
2022/07/04 02:22:16;;;;;;;53.50;30.83;;;;;;;;;;4991824;28;20058;-61
2022/07/04 02:24:42;;;;;;;47.57;29.03;;;;;;;;;;4992228;28;20042;-62
2022/07/04 02:27:08;;;;;;;45.10;28.27;;;;;;;;;;4991986;28;20053;-61
2022/07/04 02:29:34;;;;;;;47.73;28.07;;;;;;;;;;4991406;28;20163;-61
2022/07/04 02:32:00;;;;;;;51.60;30.13;;;;;;;;;;4992057;28;20034;-62
2022/07/04 02:34:27;;;;;;;44.10;28.47;;;;;;;;;;4991771;28;20046;-61
2022/07/04 02:36:53;;;;;;;48.57;27.63;;;;;;;;;;4992066;28;20034;-62
2022/07/04 02:39:19;;;;;;;47.33;30.10;;;;;;;;;;4992062;28;20042;-62
2022/07/04 02:41:45;;;;;;;43.23;29.17;;;;;;;;;;4991642;28;20105;-62
2022/07/04 02:44:11;;;;;;;48.10;29.40;;;;;;;;;;4991738;28;20050;-62
2022/07/04 02:46:37;;;;;;;47.63;29.77;;;;;;;;;;4991533;28;20412;-62
2022/07/04 02:49:04;;;;;;;55.10;31.93;;;;;;;;;;4991745;28;20555;-62
2022/07/04 02:51:30;;;;;;;52.87;31.27;;;;;;;;;;4991402;28;20042;-61
2022/07/04 02:53:56;;;;;;;51.63;31.83;;;;;;;;;;4990890;28;21035;-61
2022/07/04 02:56:22;;;;;;;48.63;31.07;;;;;;;;;;4991452;28;20049;-61
2022/07/04 02:58:48;;;;;;;60.57;33.20;;;;;;;;;;4991164;28;20054;-62
2022/07/04 03:01:15;;;;;;;59.40;31.90;;;;;;;;;;4990949;28;20046;-61
2022/07/04 03:03:41;;;;;;;54.40;31.53;;;;;;;;;;4991292;28;20054;-61
2022/07/04 03:06:08;;;;;;;50.27;29.47;;;;;;;;;;4991867;28;20515;-61
2022/07/04 03:08:34;;;;;;;53.07;31.90;;;;;;;;;;4989850;28;20412;-61
2022/07/04 03:11:00;;;;;;;57.93;31.53;;;;;;;;;;4991098;28;20500;-61
2022/07/04 03:13:26;;;;;;;48.10;31.40;;;;;;;;;;4991196;28;20046;-61
2022/07/04 03:15:52;;;;;;;46.77;29.17;;;;;;;;;;4984040;28;20077;-61
2022/07/04 03:18:19;;;;;;;56.00;32.00;;;;;;;;;;4991352;28;20073;-62
2022/07/04 03:20:45;;;;;;;47.17;27.93;;;;;;;;;;4991157;28;20054;-62
2022/07/04 03:23:11;;;;;;;39.93;27.50;;;;;;;;;;4990834;28;20054;-62
2022/07/04 03:25:37;;;;;;;50.00;31.43;;;;;;;;;;4990743;28;20082;-62
2022/07/04 03:28:04;;;;;;;47.10;29.87;;;;;;;;;;4991130;28;20097;-62
2022/07/04 03:30:30;;;;;;;47.37;30.60;;;;;;;;;;4990973;28;20572;-61
2022/07/04 03:32:56;;;;;;;41.10;28.13;;;;;;;;;;4990085;28;20042;-62
2022/07/04 03:35:22;;;;;;;46.47;29.27;;;;;;;;;;4990720;28;20100;-62
2022/07/04 03:37:48;;;;;;;41.43;26.67;;;;;;;;;;4990629;28;20046;-61
2022/07/04 03:40:14;;;;;;;45.50;28.87;;;;;;;;;;4990793;28;20049;-62
2022/07/04 03:42:40;;;;;;;45.87;28.57;;;;;;;;;;4990521;28;20754;-61
2022/07/04 03:45:07;;;;;;;47.97;28.53;;;;;;;;;;4990679;28;20425;-62
2022/07/04 03:47:33;;;;;;;37.37;24.10;;;;;;;;;;4989547;28;20050;-62
2022/07/04 03:49:59;;;;;;;45.37;28.50;;;;;;;;;;4989853;28;20057;-62
2022/07/04 03:52:25;;;;;;;43.60;29.20;;;;;;;;;;4986388;28;20039;-61
2022/07/04 03:54:51;;;;;;;41.13;25.93;;;;;;;;;;4990910;28;20046;-62
2022/07/04 03:57:17;;;;;;;42.97;27.33;;;;;;;;;;4985609;28;20054;-62
2022/07/04 03:59:44;;;;;;;48.80;28.73;;;;;;;;;;4990169;28;20054;-62
2022/07/04 04:02:10;;;;;;;57.83;31.83;;;;;;;;;;4989572;28;20042;-62
2022/07/04 04:07:21;;;;;;;44.33;28.53;;;;;;;;;;4971566;28;20051;-61
2022/07/04 04:09:47;;;;;;;54.83;29.67;;;;;;;;;;4990329;28;20050;-62
2022/07/04 04:12:13;;;;;;;37.47;23.07;;;;;;;;;;4972624;28;20038;-62
2022/07/04 04:14:39;;;;;;;43.77;25.87;;;;;;;;;;4989961;28;20448;-62
2022/07/04 04:17:05;;;;;;;36.67;23.80;;;;;;;;;;4989176;28;20058;-62
2022/07/04 04:19:31;;;;;;;33.60;22.13;;;;;;;;;;4990099;28;20073;-62
2022/07/04 04:21:57;;;;;;;34.23;24.20;;;;;;;;;;4989473;28;20540;-62
2022/07/04 04:24:23;;;;;;;38.90;23.83;;;;;;;;;;4989638;28;20082;-62
2022/07/04 04:26:49;;;;;;;40.67;24.33;;;;;;;;;;4989688;28;20042;-62
2022/07/04 04:29:15;;;;;;;32.80;21.43;;;;;;;;;;4972358;28;20069;-62
2022/07/04 04:31:41;;;;;;;44.33;25.40;;;;;;;;;;4988762;28;20128;-62
2022/07/04 04:34:07;;;;;;;32.67;20.47;;;;;;;;;;4989823;28;20045;-62
2022/07/04 04:36:33;;;;;;;32.13;20.00;;;;;;;;;;4989207;28;20046;-63
2022/07/04 04:38:59;;;;;;;30.70;19.90;;;;;;;;;;4989874;28;20068;-62
2022/07/04 04:41:25;;;;;;;41.90;21.40;;;;;;;;;;4988041;28;20416;-62
2022/07/04 04:43:52;;;;;;;38.30;24.17;;;;;;;;;;4989383;28;20046;-62
2022/07/04 04:46:18;;;;;;;33.90;20.37;;;;;;;;;;4988952;28;20132;-62
2022/07/04 04:48:44;;;;;;;32.37;18.90;;;;;;;;;;4987933;28;20042;-62
2022/07/04 04:51:10;;;;;;;33.97;19.77;;;;;;;;;;4989553;28;20050;-62
2022/07/04 04:53:36;;;;;;;26.43;16.63;;;;;;;;;;4989377;28;20496;-62
2022/07/04 04:56:02;;;;;;;27.20;15.37;;;;;;;;;;4988346;28;20046;-62
2022/07/04 04:58:29;;;;;;;27.20;17.10;;;;;;;;;;4989095;28;20042;-62
2022/07/04 05:00:55;;;;;;;25.20;16.00;;;;;;;;;;4989398;28;20073;-66
2022/07/04 05:03:21;;;;;;;21.77;14.80;;;;;;;;;;4988936;28;20042;-62
2022/07/04 05:05:47;;;;;;;22.93;14.60;;;;;;;;;;4989498;28;20034;-62
2022/07/04 05:08:13;;;;;;;29.43;18.90;;;;;;;;;;4989348;28;20048;-62
2022/07/04 05:10:40;;;;;;;25.93;16.27;;;;;;;;;;4988748;28;20042;-62
2022/07/04 05:13:06;;;;;;;18.53;14.97;;;;;;;;;;4985552;28;20053;-62
2022/07/04 05:15:32;;;;;;;17.83;14.17;;;;;;;;;;4987466;28;20046;-62
2022/07/04 05:17:58;;;;;;;27.13;16.40;;;;;;;;;;4988842;28;20512;-63
2022/07/04 05:20:24;;;;;;;28.30;18.77;;;;;;;;;;4989633;28;20428;-63
2022/07/04 05:22:50;;;;;;;32.60;18.00;;;;;;;;;;4987618;28;20054;-62
2022/07/04 05:25:16;;;;;;;28.50;18.00;;;;;;;;;;4988759;28;20042;-62
2022/07/04 05:27:42;;;;;;;20.57;15.13;;;;;;;;;;4988970;28;20229;-62
2022/07/04 05:30:09;;;;;;;24.10;14.40;;;;;;;;;;4989381;28;20121;-62
2022/07/04 05:32:38;;;;;;;33.33;16.83;;;;;;;;;;4988767;28;20577;-62
2022/07/04 05:35:04;;;;;;;24.33;16.03;;;;;;;;;;4989017;28;20054;-62
2022/07/04 05:37:30;;;;;;;29.13;16.97;;;;;;;;;;4989018;28;20097;-62
2022/07/04 05:39:56;;;;;;;34.90;16.10;;;;;;;;;;4988604;28;20050;-62
2022/07/04 05:42:23;;;;;;;20.17;14.93;;;;;;;;;;4989179;28;20053;-62
2022/07/04 05:44:49;;;;;;;23.57;15.47;;;;;;;;;;4988912;28;20527;-62
2022/07/04 05:47:15;;;;;;;25.13;14.07;;;;;;;;;;4987502;28;20125;-62
2022/07/04 05:49:41;;;;;;;18.27;12.23;;;;;;;;;;4987087;28;20125;-62
2022/07/04 05:52:07;;;;;;;17.23;12.23;;;;;;;;;;4981784;28;20114;-62
2022/07/04 05:54:33;;;;;;;25.57;14.90;;;;;;;;;;4987827;28;20043;-62
2022/07/04 05:56:59;;;;;;;18.37;12.87;;;;;;;;;;4988100;28;20540;-62
2022/07/04 05:59:25;;;;;;;16.63;11.73;;;;;;;;;;4985265;28;20057;-62
2022/07/04 06:01:51;;;;;;;22.03;13.07;;;;;;;;;;4986299;28;20058;-62
2022/07/04 06:04:17;;;;;;;20.83;13.73;;;;;;;;;;4987447;28;20050;-63
2022/07/04 06:06:43;;;;;;;19.63;13.73;;;;;;;;;;4988716;28;20050;-62
2022/07/04 06:09:10;;;;;;;20.60;12.63;;;;;;;;;;4988686;28;20100;-63
2022/07/04 06:11:36;;;;;;;22.00;12.83;;;;;;;;;;4989458;28;20046;-62
2022/07/04 06:14:02;;;;;;;21.00;12.17;;;;;;;;;;4988035;28;20145;-63
2022/07/04 06:16:28;;;;;;;21.50;13.20;;;;;;;;;;4988586;28;20160;-62
2022/07/04 06:18:54;;;;;;;21.63;12.80;;;;;;;;;;4988771;28;20050;-62
2022/07/04 06:21:20;;;;;;;18.63;11.20;;;;;;;;;;4988700;28;20058;-63
2022/07/04 06:23:46;;;;;;;14.60;11.37;;;;;;;;;;4988728;28;20081;-62
2022/07/04 06:26:12;;;;;;;15.30;11.47;;;;;;;;;;4991393;28;20058;-62
2022/07/04 06:28:38;;;;;;;14.27;10.50;;;;;;;;;;4992093;28;20057;-62
2022/07/04 06:31:04;;;;;;;15.13;10.13;;;;;;;;;;4992268;28;20563;-62
2022/07/04 06:33:30;;;;;;;15.53;9.90;;;;;;;;;;4991549;28;20049;-62
2022/07/04 06:35:56;;;;;;;14.23;9.63;;;;;;;;;;4991448;28;20042;-63
2022/07/04 06:38:27;;;;;;;14.63;9.10;;;;;;;;;;4991482;28;20532;-62
2022/07/04 06:40:55;;;;;;;20.40;9.80;;;;;;;;;;4991137;28;20042;-62
2022/07/04 06:43:21;;;;;;;14.80;8.53;;;;;;;;;;4991323;28;20058;-62
2022/07/04 06:45:47;;;;;;;19.90;8.60;;;;;;;;;;4990348;28;20073;-62
2022/07/04 06:48:13;;;;;;;16.27;8.10;;;;;;;;;;4990759;28;20046;-62
2022/07/04 06:50:39;;;;;;;17.27;8.27;;;;;;;;;;4991510;28;20133;-62
2022/07/04 06:53:06;;;;;;;15.10;9.27;;;;;;;;;;4991136;28;20157;-62
2022/07/04 06:55:32;;;;;;;17.30;9.30;;;;;;;;;;4991091;28;20519;-62
2022/07/04 06:57:59;;;;;;;14.67;7.80;;;;;;;;;;4991214;28;20527;-62
2022/07/04 07:00:25;;;;;;;17.10;7.90;;;;;;;;;;4991183;28;20129;-62
2022/07/04 07:02:51;;;;;;;12.50;7.77;;;;;;;;;;4991496;28;20058;-62
2022/07/04 07:05:17;;;;;;;12.80;7.30;;;;;;;;;;4991208;28;20416;-62
2022/07/04 07:07:43;;;;;;;14.90;7.47;;;;;;;;;;4990912;28;20573;-62
2022/07/04 07:10:09;;;;;;;16.00;7.73;;;;;;;;;;4991331;28;20093;-62
2022/07/04 07:12:35;;;;;;;11.17;7.30;;;;;;;;;;4990639;28;20093;-62
2022/07/04 07:15:02;;;;;;;13.70;7.03;;;;;;;;;;4990871;28;20047;-62
2022/07/04 07:17:28;;;;;;;15.30;8.33;;;;;;;;;;4991076;28;20047;-62
2022/07/04 07:19:55;;;;;;;15.07;7.23;;;;;;;;;;4991091;28;20042;-62
2022/07/04 07:22:21;;;;;;;11.70;7.40;;;;;;;;;;4990766;28;20098;-62
2022/07/04 07:24:47;;;;;;;15.07;6.50;;;;;;;;;;4991012;28;20275;-62
2022/07/04 07:27:13;;;;;;;17.57;7.60;;;;;;;;;;4990784;28;20409;-62
2022/07/04 07:29:40;;;;;;;18.53;7.40;;;;;;;;;;4990828;28;20093;-62
2022/07/04 07:32:07;;;;;;;14.60;6.17;;;;;;;;;;4990231;28;20047;-62
2022/07/04 07:34:33;;;;;;;13.60;6.23;;;;;;;;;;4991286;28;20049;-62
2022/07/04 07:36:59;;;;;;;15.33;5.70;;;;;;;;;;4989948;28;20405;-62
2022/07/04 07:39:25;;;;;;;12.77;6.90;;;;;;;;;;4990534;28;20054;-62
2022/07/04 07:41:51;;;;;;;10.73;5.20;;;;;;;;;;4990043;28;20046;-62
2022/07/04 07:44:17;;;;;;;13.50;5.93;;;;;;;;;;4990004;28;20412;-62
2022/07/04 07:46:43;;;;;;;9.77;5.23;;;;;;;;;;4990414;28;20096;-64
2022/07/04 07:49:09;;;;;;;9.20;4.23;;;;;;;;;;4990251;28;20093;-61
2022/07/04 07:51:36;;;;;;;10.50;4.67;;;;;;;;;;4990233;28;20042;-61
2022/07/04 07:54:02;;;;;;;11.73;4.13;;;;;;;;;;4989833;28;20456;-61
2022/07/04 07:56:28;;;;;;;9.13;3.43;;;;;;;;;;4990432;28;20042;-62
2022/07/04 07:58:54;;;;;;;10.17;2.77;;;;;;;;;;4990624;28;20042;-61
2022/07/04 08:01:20;;;;;;;8.67;2.93;;;;;;;;;;4989080;28;20097;-61
2022/07/04 08:06:32;;;;;;;10.33;2.90;;;;;;;;;;4990043;28;20054;-62
2022/07/04 08:08:58;;;;;;;12.57;3.60;;;;;;;;;;4990212;28;20077;-61
2022/07/04 08:11:24;;;;;;;7.50;3.10;;;;;;;;;;4989361;28;20614;-61
2022/07/04 08:13:50;;;;;;;9.30;2.90;;;;;;;;;;4988511;28;20105;-61
2022/07/04 08:16:17;;;;;;;10.13;2.70;;;;;;;;;;4990029;28;20038;-61
2022/07/04 08:18:43;;;;;;;14.37;3.27;;;;;;;;;;4990156;28;20045;-61
2022/07/04 08:21:09;;;;;;;8.87;2.53;;;;;;;;;;4989252;28;20042;-61
2022/07/04 08:23:36;;;;;;;12.13;2.80;;;;;;;;;;4990231;28;20117;-61
2022/07/04 08:26:02;;;;;;;7.77;3.60;;;;;;;;;;4990167;28;20046;-61
2022/07/04 08:28:29;;;;;;;9.87;2.50;;;;;;;;;;4982682;28;20046;-61
2022/07/04 08:30:56;;;;;;;9.37;3.17;;;;;;;;;;4987893;28;20105;-61
2022/07/04 08:33:22;;;;;;;9.67;3.17;;;;;;;;;;4980715;28;20054;-61
2022/07/04 08:35:48;;;;;;;7.20;2.03;;;;;;;;;;4987801;28;20425;-60
2022/07/04 08:38:15;;;;;;;7.17;2.20;;;;;;;;;;4982671;28;20043;-62
2022/07/04 08:40:42;;;;;;;7.63;2.17;;;;;;;;;;4986900;28;20053;-61
2022/07/04 08:43:09;;;;;;;6.33;2.23;;;;;;;;;;4984863;28;20088;-61
2022/07/04 08:45:35;;;;;;;7.30;2.43;;;;;;;;;;4982976;28;20103;-61
2022/07/04 08:48:02;;;;;;;5.30;2.10;;;;;;;;;;4987839;28;20081;-61
2022/07/04 08:50:33;;;;;;;10.57;2.30;;;;;;;;;;4975215;28;20047;-60
2022/07/04 08:53:12;;;;;;;8.57;2.47;;;;;;;;;;4975394;28;20384;-61
2022/07/04 08:58:26;;;;;;;7.83;2.23;;;;;;;;;;4986099;28;20038;-61
2022/07/04 09:00:57;;;;;;;7.70;2.63;;;;;;;;;;4988027;28;20080;-61
2022/07/04 09:03:23;;;;;;;8.97;1.67;;;;;;;;;;4986856;28;20058;-60
2022/07/04 09:05:49;;;;;;;5.70;1.83;;;;;;;;;;4983169;28;20101;-61
2022/07/04 09:08:16;;;;;;;6.47;1.63;;;;;;;;;;4983584;28;20053;-61
2022/07/04 09:10:42;;;;;;;5.80;1.90;;;;;;;;;;4984735;28;20120;-61
2022/07/04 09:13:09;;;;;;;8.67;1.70;;;;;;;;;;4982450;28;20084;-61
2022/07/04 09:15:35;;;;;;;4.75;1.40;;;;;;;;;;4985808;28;20050;-61
2022/07/04 09:18:01;;;;;;;4.47;1.48;;;;;;;;;;4986143;28;20100;-61
2022/07/04 09:20:28;;;;;;;3.92;1.30;;;;;;;;;;4983633;28;20405;-61
2022/07/04 09:22:54;;;;;;;5.88;1.50;;;;;;;;;;4984087;28;20085;-61
2022/07/04 09:25:22;;;;;;;5.00;2.40;;;;;;;;;;4986444;28;20489;-61
2022/07/04 09:27:49;;;;;;;5.22;1.42;;;;;;;;;;4989000;28;20074;-61
2022/07/04 09:30:16;;;;;;;6.27;1.63;;;;;;;;;;4978872;28;20038;-61
2022/07/04 09:32:44;;;;;;;3.00;1.20;;;;;;;;;;4980262;28;20046;-61
2022/07/04 09:35:10;;;;;;;6.43;1.55;;;;;;;;;;4979581;28;20085;-61
2022/07/04 09:37:41;;;;;;;5.00;1.70;;;;;;;;;;4981638;28;20137;-61
2022/07/04 09:40:08;;;;;;;6.07;1.63;;;;;;;;;;4984971;28;20078;-61
2022/07/04 09:42:35;;;;;;;3.75;1.35;;;;;;;;;;4982449;28;20043;-61
2022/07/04 09:45:05;;;;;;;3.97;1.10;;;;;;;;;;4987579;28;20038;-61
2022/07/04 09:47:31;;;;;;;4.93;1.70;;;;;;;;;;4986281;28;20349;-61
2022/07/04 09:50:05;;;;;;;4.10;1.27;;;;;;;;;;4986333;28;20038;-61
2022/07/04 09:52:31;;;;;;;4.43;1.20;;;;;;;;;;4986029;28;20039;-61
2022/07/04 09:55:02;;;;;;;4.17;1.20;;;;;;;;;;4987930;28;20139;-61
2022/07/04 09:57:30;;;;;;;4.93;1.30;;;;;;;;;;4987759;28;20150;-61
2022/07/04 09:59:56;;;;;;;3.72;1.10;;;;;;;;;;4988543;28;20464;-61
2022/07/04 10:02:22;;;;;;;8.00;2.08;;;;;;;;;;4993372;28;20407;-61
2022/07/04 10:04:51;;;;;;;4.97;1.35;;;;;;;;;;5008827;28;20397;-61
2022/07/04 10:07:32;;;;;;;5.47;2.08;;;;;;;;;;4991472;28;20054;-61
2022/07/04 10:09:58;;;;;;;6.40;2.05;;;;;;;;;;4992488;28;20129;-61
2022/07/04 10:12:25;;;;;;;2.45;1.00;;;;;;;;;;4992758;28;20469;-61
2022/07/04 10:14:52;;;;;;;3.30;1.00;;;;;;;;;;4991738;28;20058;-61
2022/07/04 10:17:18;;;;;;;5.43;1.20;;;;;;;;;;4990746;28;20057;-61
2022/07/04 10:19:44;;;;;;;3.10;0.85;;;;;;;;;;4992528;28;20050;-61
2022/07/04 10:22:10;;;;;;;2.67;0.85;;;;;;;;;;4991486;28;20517;-61
2022/07/04 10:24:36;;;;;;;3.28;1.23;;;;;;;;;;4987423;28;20712;-61
2022/07/04 10:27:02;;;;;;;3.65;1.05;;;;;;;;;;4990795;28;20108;-61
2022/07/04 10:29:28;;;;;;;4.75;0.95;;;;;;;;;;4993936;28;20140;-61
2022/07/04 10:31:55;;;;;;;6.70;1.10;;;;;;;;;;4993723;28;20053;-62
2022/07/04 10:34:21;;;;;;;1.60;0.63;;;;;;;;;;4988033;28;20145;-61
2022/07/04 10:36:53;;;;;;;2.95;0.80;;;;;;;;;;5001329;28;20038;-61
2022/07/04 10:39:26;;;;;;;3.10;0.80;;;;;;;;;;4988601;28;20186;-61
2022/07/04 10:41:59;;;;;;;2.67;0.80;;;;;;;;;;4990358;28;20062;-61
2022/07/04 10:44:26;;;;;;;1.92;0.65;;;;;;;;;;4989130;28;20050;-61
2022/07/04 10:46:57;;;;;;;3.72;1.33;;;;;;;;;;4987673;28;20070;-60
2022/07/04 10:49:24;;;;;;;3.10;1.05;;;;;;;;;;4987238;28;20046;-61
2022/07/04 10:51:55;;;;;;;5.38;1.02;;;;;;;;;;4991857;28;20467;-61
2022/07/04 10:54:32;;;;;;;1.25;0.57;;;;;;;;;;4991602;28;20130;-61
2022/07/04 10:56:58;;;;;;;3.60;1.10;;;;;;;;;;4991557;28;20042;-61
2022/07/04 10:59:28;;;;;;;1.52;0.80;;;;;;;;;;4991691;28;20076;-60
2022/07/04 11:02:06;;;;;;;2.85;0.80;;;;;;;;;;4992037;28;20441;-60
2022/07/04 11:04:49;;;;;;;5.70;1.00;;;;;;;;;;4991747;28;20047;-61
2022/07/04 11:07:15;;;;;;;2.20;0.82;;;;;;;;;;4991237;28;20046;-61
2022/07/04 11:09:42;;;;;;;2.40;1.00;;;;;;;;;;4991211;28;20057;-61
2022/07/04 11:12:09;;;;;;;3.72;1.70;;;;;;;;;;4991435;28;20089;-61
2022/07/04 11:14:36;;;;;;;1.65;0.90;;;;;;;;;;4992118;28;20035;-60
2022/07/04 11:17:03;;;;;;;2.35;0.90;;;;;;;;;;4991187;28;20132;-61
2022/07/04 11:19:29;;;;;;;2.22;0.68;;;;;;;;;;4991061;28;20038;-61
2022/07/04 11:21:55;;;;;;;2.97;0.80;;;;;;;;;;4992233;28;20061;-60
2022/07/04 11:24:22;;;;;;;2.70;0.70;;;;;;;;;;4990947;28;20159;-61
2022/07/04 11:26:48;;;;;;;3.08;0.80;;;;;;;;;;4991741;28;20512;-61
2022/07/04 11:29:14;;;;;;;1.67;0.90;;;;;;;;;;4989973;28;20099;-61
2022/07/04 11:31:41;;;;;;;2.25;0.77;;;;;;;;;;4990562;28;20053;-61
2022/07/04 11:34:08;;;;;;;2.88;0.80;;;;;;;;;;4990352;28;20081;-61
2022/07/04 11:36:34;;;;;;;2.25;1.08;;;;;;;;;;4989100;28;20043;-61
2022/07/04 11:39:04;;;;;;;2.47;1.08;;;;;;;;;;4989528;28;20485;-61
2022/07/04 11:47:06;;;;;;;5.35;1.00;;;;;;;;;;4988431;28;20061;-61
2022/07/04 11:49:32;;;;;;;3.60;0.90;;;;;;;;;;4991262;28;20042;-61
2022/07/04 11:51:58;;;;;;;3.08;0.90;;;;;;;;;;4974332;28;20074;-61
2022/07/04 11:54:24;;;;;;;3.92;0.98;;;;;;;;;;4981147;28;20034;-61
2022/07/04 11:56:51;;;;;;;2.50;1.00;;;;;;;;;;4989365;28;20047;-61
2022/07/04 11:59:17;;;;;;;3.53;0.80;;;;;;;;;;4980544;28;20416;-61
2022/07/04 12:01:44;;;;;;;3.20;0.90;;;;;;;;;;4981278;28;20496;-61
2022/07/04 12:04:13;;;;;;;3.95;0.95;;;;;;;;;;4982075;28;20046;-61
2022/07/04 12:06:39;;;;;;;5.00;1.00;;;;;;;;;;4982277;28;20116;-61
2022/07/04 12:09:06;;;;;;;2.92;0.93;;;;;;;;;;4983881;28;20104;-61
2022/07/04 12:11:51;;;;;;;1.98;0.93;;;;;;;;;;4985401;28;20061;-61
2022/07/04 12:14:17;;;;;;;2.90;0.95;;;;;;;;;;4985158;28;20444;-61
2022/07/04 12:16:43;;;;;;;2.95;0.98;;;;;;;;;;4978493;28;20049;-61
2022/07/04 12:19:10;;;;;;;2.67;0.82;;;;;;;;;;4984334;28;21098;-61
2022/07/04 12:21:36;;;;;;;2.25;0.70;;;;;;;;;;4964272;28;20097;-61
2022/07/04 12:24:03;;;;;;;3.15;0.80;;;;;;;;;;4979877;28;20481;-61
2022/07/04 12:26:30;;;;;;;5.40;1.23;;;;;;;;;;4983183;28;20110;-61
2022/07/04 12:28:57;;;;;;;4.05;0.90;;;;;;;;;;4984658;28;20439;-61
2022/07/04 12:31:39;;;;;;;2.88;1.17;;;;;;;;;;4984278;28;20420;-61
2022/07/04 12:34:13;;;;;;;2.90;0.70;;;;;;;;;;4982528;28;20042;-61
2022/07/04 12:36:52;;;;;;;3.22;0.82;;;;;;;;;;4986599;28;20104;-61
2022/07/04 12:39:34;;;;;;;3.53;0.65;;;;;;;;;;4979003;28;20054;-61
2022/07/04 12:42:08;;;;;;;3.90;1.50;;;;;;;;;;4983513;28;20042;-61
2022/07/04 12:44:34;;;;;;;2.72;1.35;;;;;;;;;;4979710;28;20413;-61
2022/07/04 12:47:01;;;;;;;4.18;1.17;;;;;;;;;;4977869;28;20042;-61
2022/07/04 12:49:28;;;;;;;4.60;1.15;;;;;;;;;;4983086;28;20070;-61
2022/07/04 12:52:03;;;;;;;2.33;0.77;;;;;;;;;;4980331;28;20073;-61
2022/07/04 12:54:29;;;;;;;1.83;1.08;;;;;;;;;;4982879;28;20046;-61
2022/07/04 12:57:03;;;;;;;5.22;0.75;;;;;;;;;;4983538;28;20053;-61
2022/07/04 12:59:29;;;;;;;2.67;0.98;;;;;;;;;;4984366;28;20380;-62
2022/07/04 13:01:55;;;;;;;4.80;1.10;;;;;;;;;;4980394;28;20449;-61
2022/07/04 13:04:21;;;;;;;2.45;0.77;;;;;;;;;;4984045;28;20485;-61
2022/07/04 13:06:47;;;;;;;4.97;0.68;;;;;;;;;;4982286;28;20105;-61
2022/07/04 13:09:13;;;;;;;2.45;0.68;;;;;;;;;;4979855;28;20046;-60
2022/07/04 13:14:24;;;;;;;2.60;0.73;;;;;;;;;;4986446;28;20054;-61
2022/07/04 13:16:50;;;;;;;2.28;0.90;;;;;;;;;;4985498;28;20096;-61
2022/07/04 13:19:17;;;;;;;2.60;0.85;;;;;;;;;;4982509;28;20042;-61
2022/07/04 13:21:43;;;;;;;2.78;0.70;;;;;;;;;;4977709;28;20062;-61
2022/07/04 13:24:09;;;;;;;4.70;0.90;;;;;;;;;;4983663;28;20113;-61
2022/07/04 13:26:37;;;;;;;1.70;0.55;;;;;;;;;;4978667;28;20057;-61
2022/07/04 13:29:04;;;;;;;2.30;0.60;;;;;;;;;;4981674;28;20117;-61
2022/07/04 13:31:30;;;;;;;2.55;0.85;;;;;;;;;;4986152;28;20390;-61
2022/07/04 13:33:56;;;;;;;3.13;0.80;;;;;;;;;;4983836;28;20046;-61
2022/07/04 13:36:22;;;;;;;2.55;0.77;;;;;;;;;;4988954;28;20132;-61
2022/07/04 13:38:48;;;;;;;3.80;0.75;;;;;;;;;;4989679;28;20042;-61
2022/07/04 13:41:14;;;;;;;1.88;0.70;;;;;;;;;;4990176;28;20164;-61
2022/07/04 13:43:40;;;;;;;1.80;0.52;;;;;;;;;;4983319;28;20054;-61
2022/07/04 13:46:07;;;;;;;4.05;0.90;;;;;;;;;;4988552;28;20042;-61
2022/07/04 13:48:33;;;;;;;1.55;0.52;;;;;;;;;;4988547;28;20057;-61
2022/07/04 13:50:59;;;;;;;1.35;0.43;;;;;;;;;;4989568;28;20053;-61
2022/07/04 13:53:25;;;;;;;1.77;0.50;;;;;;;;;;4972826;28;20127;-61
2022/07/04 13:55:51;;;;;;;2.10;0.57;;;;;;;;;;4987973;28;20045;-61
2022/07/04 13:58:18;;;;;;;2.75;0.70;;;;;;;;;;4989833;28;20046;-61
2022/07/04 14:00:45;;;;;;;2.03;0.73;;;;;;;;;;4990391;28;20488;-61
2022/07/04 14:03:12;;;;;;;1.30;0.55;;;;;;;;;;4990133;28;20114;-61
2022/07/04 14:05:41;;;;;;;3.08;0.80;;;;;;;;;;4991629;28;20043;-61
2022/07/04 14:08:07;;;;;;;3.13;0.50;;;;;;;;;;4991269;28;20043;-61
2022/07/04 14:10:33;;;;;;;1.45;0.50;;;;;;;;;;4989869;28;20418;-62
2022/07/04 14:12:59;;;;;;;2.17;0.60;;;;;;;;;;4985679;28;20417;-61
2022/07/04 14:15:25;;;;;;;2.03;0.93;;;;;;;;;;4990815;28;20171;-61
2022/07/04 14:17:51;;;;;;;1.98;0.75;;;;;;;;;;4990289;28;20129;-61
2022/07/04 14:20:18;;;;;;;1.17;0.50;;;;;;;;;;4991147;28;20041;-61
2022/07/04 14:22:44;;;;;;;1.15;0.50;;;;;;;;;;4987019;28;20062;-60
2022/07/04 14:25:10;;;;;;;2.20;0.60;;;;;;;;;;4989852;28;20046;-61
2022/07/04 14:27:37;;;;;;;4.35;0.80;;;;;;;;;;4990172;28;20046;-61
2022/07/04 14:30:03;;;;;;;2.60;0.55;;;;;;;;;;4987644;28;20084;-61
2022/07/04 14:32:30;;;;;;;2.13;0.70;;;;;;;;;;4988938;28;20067;-61
2022/07/04 14:34:56;;;;;;;8.02;0.57;;;;;;;;;;4990023;28;20053;-61
2022/07/04 14:37:22;;;;;;;2.55;0.60;;;;;;;;;;4990389;28;20050;-60
2022/07/04 14:39:48;;;;;;;1.83;0.77;;;;;;;;;;4990444;28;20046;-61
2022/07/04 14:42:14;;;;;;;1.73;0.50;;;;;;;;;;4986013;28;20043;-61
2022/07/04 14:44:40;;;;;;;1.25;0.47;;;;;;;;;;4990317;28;20109;-60
2022/07/04 14:47:06;;;;;;;2.05;0.60;;;;;;;;;;4989788;28;20038;-61
2022/07/04 14:49:32;;;;;;;2.08;0.50;;;;;;;;;;4989083;28;20373;-61